Time;durP1;ratioP1;P1;durP2;ratioP2;P2;SDS_P1;SDS_P2;PMS_P1;PMS_P2;Temp;Humidity;BMP_temperature;BMP_pressure;BME280_temperature;BME280_humidity;BME280_pressure;Samples;Min_cycle;Max_cycle;Signal;HPM_P1;HPM_P2
2022/07/18 00:00:05;;;;;;;4.20;1.88;;;19.90;66.20;;;;;;5036427;28;20419;-77
2022/07/18 00:02:31;;;;;;;4.43;1.83;;;19.90;66.30;;;;;;5036946;28;20349;-77
2022/07/18 00:04:56;;;;;;;7.95;2.33;;;19.80;66.30;;;;;;5036572;28;20029;-77
2022/07/18 00:07:22;;;;;;;6.28;2.28;;;19.80;66.40;;;;;;5036292;28;20487;-77
2022/07/18 00:09:47;;;;;;;4.97;1.92;;;19.80;66.70;;;;;;5036224;28;20053;-77
2022/07/18 00:12:13;;;;;;;5.35;1.88;;;19.70;67.20;;;;;;5036086;28;20554;-77
2022/07/18 00:14:40;;;;;;;6.18;1.92;;;19.70;68.40;;;;;;5036238;28;20056;-77
2022/07/18 00:17:06;;;;;;;4.95;2.30;;;19.70;68.00;;;;;;5036551;28;20048;-77
2022/07/18 00:19:32;;;;;;;7.72;1.90;;;19.60;67.80;;;;;;5035474;28;20564;-77
2022/07/18 00:21:58;;;;;;;6.13;2.13;;;19.60;67.70;;;;;;5052851;28;20542;-77
2022/07/18 00:24:24;;;;;;;4.97;2.03;;;19.60;67.90;;;;;;5052468;28;20035;-77
2022/07/18 00:26:50;;;;;;;5.60;2.08;;;19.60;67.60;;;;;;5036197;28;20388;-77
2022/07/18 00:29:15;;;;;;;6.55;2.20;;;19.60;67.60;;;;;;5052705;28;20438;-77
2022/07/18 00:31:41;;;;;;;4.78;1.70;;;19.50;67.80;;;;;;5035994;28;20087;-77
2022/07/18 00:34:07;;;;;;;5.88;1.92;;;19.50;68.10;;;;;;5035728;28;20473;-77
2022/07/18 00:36:32;;;;;;;5.18;1.58;;;19.50;68.30;;;;;;5052551;28;20036;-78
2022/07/18 00:38:58;;;;;;;4.55;1.92;;;19.40;68.50;;;;;;5053898;28;20078;-77
2022/07/18 00:41:24;;;;;;;6.47;2.28;;;19.40;68.60;;;;;;5035892;28;20025;-77
2022/07/18 00:43:50;;;;;;;5.68;1.92;;;19.30;68.60;;;;;;5052884;28;20369;-77
2022/07/18 00:46:19;;;;;;;4.75;2.03;;;19.30;68.60;;;;;;5052189;28;20021;-77
2022/07/18 00:48:45;;;;;;;7.03;1.73;;;19.30;68.60;;;;;;5036162;28;20064;-77
2022/07/18 00:51:11;;;;;;;5.80;1.92;;;19.30;68.70;;;;;;5035649;28;20063;-77
2022/07/18 00:53:36;;;;;;;7.03;2.05;;;19.20;68.70;;;;;;5053275;28;20094;-77
2022/07/18 00:56:03;;;;;;;4.95;1.90;;;19.20;68.80;;;;;;5036089;28;20029;-78
2022/07/18 00:58:30;;;;;;;5.13;2.33;;;19.20;68.90;;;;;;5035550;28;20025;-78
2022/07/18 01:03:40;;;;;;;5.85;1.77;;;19.10;69.30;;;;;;5053507;28;20188;-79
2022/07/18 01:06:06;;;;;;;5.47;2.17;;;19.10;69.40;;;;;;5053165;28;20108;-78
2022/07/18 01:08:32;;;;;;;4.75;1.95;;;19.10;69.60;;;;;;5051923;28;20017;-78
2022/07/18 01:10:58;;;;;;;5.60;2.20;;;19.00;69.70;;;;;;5035369;28;20037;-78
2022/07/18 01:13:24;;;;;;;5.03;2.30;;;19.00;69.80;;;;;;5035352;28;20420;-78
2022/07/18 01:15:50;;;;;;;5.65;2.35;;;18.90;69.80;;;;;;5051741;28;20048;-78
2022/07/18 01:18:16;;;;;;;4.88;1.98;;;18.90;69.90;;;;;;5053223;28;20022;-78
2022/07/18 01:20:42;;;;;;;4.15;1.77;;;18.90;69.90;;;;;;5051837;28;20547;-78
2022/07/18 01:23:08;;;;;;;5.40;2.00;;;18.90;70.10;;;;;;5052288;28;20385;-78
2022/07/18 01:25:34;;;;;;;4.68;1.95;;;18.80;70.30;;;;;;5051619;28;20033;-78
2022/07/18 01:27:59;;;;;;;5.93;1.75;;;18.80;70.40;;;;;;5051814;28;20120;-78
2022/07/18 01:30:26;;;;;;;6.63;1.85;;;18.80;70.40;;;;;;5035890;28;20040;-78
2022/07/18 01:32:59;;;;;;;5.30;2.30;;;18.70;71.10;;;;;;5055634;28;20526;-78
2022/07/18 01:35:26;;;;;;;4.53;1.83;;;18.70;70.70;;;;;;5055579;28;20090;-78
2022/07/18 01:37:54;;;;;;;4.43;2.05;;;18.70;71.00;;;;;;5039175;28;20044;-78
2022/07/18 01:40:20;;;;;;;5.78;1.77;;;18.70;71.50;;;;;;5055622;28;20171;-78
2022/07/18 01:42:46;;;;;;;5.28;2.30;;;18.60;71.50;;;;;;5038953;28;20150;-78
2022/07/18 01:45:11;;;;;;;5.10;1.98;;;18.60;71.50;;;;;;5056618;28;20095;-78
2022/07/18 01:47:37;;;;;;;4.47;1.90;;;18.60;71.50;;;;;;5038725;28;20496;-78
2022/07/18 01:50:04;;;;;;;5.68;1.80;;;18.60;71.30;;;;;;5038936;28;20178;-78
2022/07/18 01:52:30;;;;;;;4.05;1.80;;;18.60;71.30;;;;;;5055447;28;20106;-78
2022/07/18 01:54:55;;;;;;;6.57;2.08;;;18.60;71.00;;;;;;5054983;28;20146;-78
2022/07/18 01:57:21;;;;;;;5.57;2.53;;;18.50;70.80;;;;;;5055447;28;20017;-78
2022/07/18 01:59:47;;;;;;;5.18;1.85;;;18.50;70.70;;;;;;5038753;28;20469;-78
2022/07/18 02:02:12;;;;;;;4.53;1.92;;;18.50;70.80;;;;;;5038731;28;20017;-78
2022/07/18 02:07:22;;;;;;;6.63;1.67;;;18.40;71.60;;;;;;5041611;28;20216;-78
2022/07/18 02:09:48;;;;;;;4.05;2.17;;;18.40;72.60;;;;;;5055283;28;20119;-78
2022/07/18 02:12:13;;;;;;;6.68;2.28;;;18.40;72.30;;;;;;5054747;28;20040;-78
2022/07/18 02:14:39;;;;;;;7.05;1.70;;;18.30;72.70;;;;;;5038469;28;20040;-79
2022/07/18 02:17:05;;;;;;;7.25;2.00;;;18.30;73.40;;;;;;5038204;28;20477;-78
2022/07/18 02:19:30;;;;;;;4.38;1.88;;;18.30;73.90;;;;;;5054767;28;20021;-78
2022/07/18 02:21:56;;;;;;;5.05;1.98;;;18.30;74.40;;;;;;5054641;28;20120;-78
2022/07/18 02:24:22;;;;;;;5.93;2.00;;;18.20;74.60;;;;;;5056033;28;20033;-78
2022/07/18 02:26:47;;;;;;;5.03;2.20;;;18.30;75.10;;;;;;5038531;28;20354;-78
2022/07/18 02:29:13;;;;;;;8.95;2.97;;;18.20;75.20;;;;;;5038323;28;20477;-78
2022/07/18 02:31:39;;;;;;;7.13;1.92;;;18.20;75.40;;;;;;5055198;28;20033;-78
2022/07/18 02:34:09;;;;;;;3.78;1.77;;;18.20;75.10;;;;;;5038075;28;20431;-78
2022/07/18 02:36:39;;;;;;;4.97;1.90;;;18.10;74.50;;;;;;5038624;28;20029;-78
2022/07/18 02:39:07;;;;;;;5.55;2.10;;;18.10;74.20;;;;;;5039025;28;20021;-78
2022/07/18 02:41:33;;;;;;;4.78;1.95;;;18.10;74.00;;;;;;5054623;28;20068;-78
2022/07/18 02:43:59;;;;;;;9.00;2.60;;;18.00;73.80;;;;;;5037588;28;20061;-80
2022/07/18 02:46:25;;;;;;;7.40;1.80;;;18.00;73.90;;;;;;5037819;28;20037;-81
2022/07/18 02:48:51;;;;;;;4.07;1.85;;;18.00;74.10;;;;;;5055571;28;20100;-80
2022/07/18 02:51:17;;;;;;;7.43;1.77;;;17.90;74.20;;;;;;5055503;28;20037;-80
2022/07/18 02:53:42;;;;;;;5.22;1.60;;;17.90;74.40;;;;;;5037509;28;20049;-80
2022/07/18 02:56:08;;;;;;;4.70;1.58;;;17.90;74.60;;;;;;5055390;28;20079;-80
2022/07/18 02:58:34;;;;;;;5.63;1.80;;;17.90;74.60;;;;;;5037517;28;20364;-80
2022/07/18 03:00:59;;;;;;;4.47;1.83;;;17.80;74.60;;;;;;5054088;28;20025;-80
2022/07/18 03:03:25;;;;;;;3.80;1.52;;;17.80;74.70;;;;;;5037573;28;20025;-80
2022/07/18 03:05:51;;;;;;;7.53;1.95;;;17.80;74.80;;;;;;5053979;28;20381;-80
2022/07/18 03:08:16;;;;;;;7.43;2.35;;;17.80;74.80;;;;;;5038210;28;20032;-80
2022/07/18 03:10:42;;;;;;;4.85;1.83;;;17.80;74.90;;;;;;5037496;28;20469;-80
2022/07/18 03:13:10;;;;;;;4.30;2.00;;;17.70;74.80;;;;;;5053828;28;20025;-80
2022/07/18 03:15:36;;;;;;;6.22;2.05;;;17.70;74.80;;;;;;5037451;28;20049;-80
2022/07/18 03:18:02;;;;;;;7.75;2.30;;;17.70;74.80;;;;;;5053721;28;20021;-80
2022/07/18 03:20:28;;;;;;;4.63;1.63;;;17.70;74.80;;;;;;5054164;28;20025;-80
2022/07/18 03:22:54;;;;;;;4.63;2.60;;;17.60;74.80;;;;;;5036987;28;20496;-80
2022/07/18 03:25:19;;;;;;;6.40;1.75;;;17.60;74.80;;;;;;5037031;28;20041;-80
2022/07/18 03:27:45;;;;;;;7.07;2.55;;;17.60;74.80;;;;;;5036925;28;20041;-80
2022/07/18 03:30:11;;;;;;;4.88;2.30;;;17.50;74.70;;;;;;5036999;28;20036;-80
2022/07/18 03:32:37;;;;;;;3.95;1.77;;;17.60;74.80;;;;;;5053811;28;20124;-80
2022/07/18 03:35:03;;;;;;;5.90;2.38;;;17.60;74.80;;;;;;5036908;28;20120;-80
2022/07/18 03:37:28;;;;;;;4.80;2.00;;;17.50;74.80;;;;;;5036871;28;20078;-80
2022/07/18 03:39:54;;;;;;;8.52;2.60;;;17.50;74.60;;;;;;5037158;28;20025;-80
2022/07/18 03:42:20;;;;;;;5.13;1.73;;;17.50;74.50;;;;;;5053296;28;20481;-80
2022/07/18 03:44:45;;;;;;;6.68;2.20;;;17.50;74.40;;;;;;5036705;28;20036;-80
2022/07/18 03:47:11;;;;;;;3.60;1.83;;;17.50;74.30;;;;;;5036607;28;20057;-80
2022/07/18 03:49:37;;;;;;;4.43;2.33;;;17.40;74.20;;;;;;5036442;28;20029;-80
2022/07/18 03:52:03;;;;;;;5.10;2.00;;;17.50;74.30;;;;;;5036506;28;20056;-80
2022/07/18 03:54:28;;;;;;;7.00;2.25;;;17.50;74.30;;;;;;5035251;28;20045;-80
2022/07/18 03:56:54;;;;;;;5.68;2.08;;;17.50;74.40;;;;;;5036525;28;20036;-80
2022/07/18 03:59:20;;;;;;;5.47;1.92;;;17.40;74.30;;;;;;5036374;28;20021;-81
2022/07/18 04:01:46;;;;;;;4.38;1.70;;;17.40;74.30;;;;;;5036403;28;20476;-80
2022/07/18 04:04:11;;;;;;;7.72;2.42;;;17.40;74.30;;;;;;5036465;28;20033;-80
2022/07/18 04:06:37;;;;;;;4.93;2.10;;;17.40;74.40;;;;;;5053999;28;20036;-80
2022/07/18 04:09:03;;;;;;;5.85;2.13;;;17.40;74.40;;;;;;5052779;28;20128;-81
2022/07/18 04:11:29;;;;;;;5.15;2.08;;;17.40;74.60;;;;;;5036118;28;20037;-80
2022/07/18 04:13:55;;;;;;;3.30;1.63;;;17.40;74.80;;;;;;5019546;28;20029;-80
2022/07/18 04:16:21;;;;;;;6.63;2.17;;;17.40;74.80;;;;;;5052425;28;20052;-80
2022/07/18 04:18:46;;;;;;;5.13;1.90;;;17.40;74.90;;;;;;5053903;28;20036;-80
2022/07/18 04:21:13;;;;;;;8.63;3.03;;;17.40;74.90;;;;;;5036221;28;20079;-80
2022/07/18 04:23:40;;;;;;;7.18;2.35;;;17.40;74.80;;;;;;5052517;28;20115;-80
2022/07/18 04:26:05;;;;;;;9.73;2.58;;;17.40;74.70;;;;;;5052570;28;20392;-80
2022/07/18 04:28:31;;;;;;;10.20;2.47;;;17.40;74.50;;;;;;5036125;28;20123;-80
2022/07/18 04:30:57;;;;;;;12.88;2.20;;;17.40;74.30;;;;;;5053823;28;20025;-80
2022/07/18 04:33:22;;;;;;;5.63;2.38;;;17.50;74.20;;;;;;5035916;28;20037;-80
2022/07/18 04:35:49;;;;;;;5.82;2.58;;;17.50;73.90;;;;;;5053755;28;20013;-80
2022/07/18 04:38:15;;;;;;;13.02;2.42;;;17.50;73.80;;;;;;5040081;28;20483;-80
2022/07/18 04:40:41;;;;;;;11.43;3.20;;;17.50;73.60;;;;;;5089526;28;20024;-80
2022/07/18 04:43:07;;;;;;;7.63;2.38;;;17.60;73.60;;;;;;5075500;28;20468;-80
2022/07/18 04:45:36;;;;;;;7.75;2.55;;;17.60;73.40;;;;;;5090536;28;20035;-80
2022/07/18 04:48:04;;;;;;;8.18;2.65;;;17.60;73.30;;;;;;5075464;28;20027;-80
2022/07/18 04:50:29;;;;;;;10.95;2.22;;;17.60;73.20;;;;;;5061222;28;20047;-80
2022/07/18 04:52:56;;;;;;;12.35;2.75;;;17.70;73.30;;;;;;5081117;28;20052;-80
2022/07/18 04:55:23;;;;;;;7.78;2.45;;;17.70;73.20;;;;;;5056724;28;20405;-80
2022/07/18 04:57:50;;;;;;;7.15;2.30;;;17.70;73.20;;;;;;5073148;28;20111;-80
2022/07/18 05:00:21;;;;;;;8.05;2.45;;;17.80;73.00;;;;;;5055876;28;20017;-80
2022/07/18 05:02:50;;;;;;;9.30;2.70;;;17.80;72.90;;;;;;5042116;28;20028;-80
2022/07/18 05:05:18;;;;;;;7.20;2.72;;;17.80;72.80;;;;;;5053394;28;20032;-80
2022/07/18 05:07:45;;;;;;;5.70;2.30;;;17.90;72.70;;;;;;5054969;28;20052;-80
2022/07/18 05:10:13;;;;;;;9.23;2.88;;;17.90;72.60;;;;;;5088645;28;20111;-80
2022/07/18 05:12:42;;;;;;;7.53;2.30;;;18.00;72.60;;;;;;5055179;28;20020;-81
2022/07/18 05:15:10;;;;;;;7.85;2.10;;;18.00;72.40;;;;;;5073246;28;20495;-81
2022/07/18 05:17:36;;;;;;;9.55;2.22;;;18.00;72.30;;;;;;5071555;28;20045;-81
2022/07/18 05:20:07;;;;;;;10.60;2.78;;;18.10;72.20;;;;;;5055203;28;20017;-81
2022/07/18 05:22:34;;;;;;;7.75;2.78;;;18.10;72.10;;;;;;5055172;28;20013;-81
2022/07/18 05:25:00;;;;;;;11.18;2.72;;;18.20;72.10;;;;;;5073100;28;20450;-81
2022/07/18 05:27:26;;;;;;;9.02;2.40;;;18.20;72.10;;;;;;5054807;28;20082;-81
2022/07/18 05:29:52;;;;;;;6.97;2.40;;;18.20;72.00;;;;;;5071787;28;20411;-81
2022/07/18 05:32:17;;;;;;;6.53;2.42;;;18.30;71.90;;;;;;5055348;28;20032;-81
2022/07/18 05:34:43;;;;;;;7.72;2.42;;;18.30;71.80;;;;;;5071320;28;20028;-81
2022/07/18 05:37:09;;;;;;;11.65;2.88;;;18.40;71.70;;;;;;5088513;28;20025;-81
2022/07/18 05:39:35;;;;;;;13.65;2.88;;;18.40;71.60;;;;;;5088556;28;20112;-81
2022/07/18 05:42:02;;;;;;;12.27;3.03;;;18.40;71.50;;;;;;5071575;28;20123;-81
2022/07/18 05:44:27;;;;;;;11.98;2.47;;;18.40;71.40;;;;;;5071357;28;20024;-81
2022/07/18 05:46:53;;;;;;;7.88;2.28;;;18.50;71.30;;;;;;5071626;28;20078;-80
2022/07/18 05:49:19;;;;;;;13.85;2.75;;;18.50;71.20;;;;;;5071423;28;20048;-80
2022/07/18 05:51:45;;;;;;;9.90;2.30;;;18.50;71.10;;;;;;5071443;28;20029;-81
2022/07/18 05:54:11;;;;;;;7.15;2.58;;;18.50;71.20;;;;;;5073666;28;20493;-79
2022/07/18 05:56:36;;;;;;;5.57;1.92;;;18.50;71.30;;;;;;5061040;28;20389;-79
2022/07/18 05:59:02;;;;;;;6.38;2.05;;;18.50;71.30;;;;;;5035269;28;20033;-78
2022/07/18 06:01:28;;;;;;;8.02;3.17;;;18.60;71.20;;;;;;5052768;28;20025;-78
2022/07/18 06:03:53;;;;;;;4.97;2.15;;;18.60;71.10;;;;;;5034985;28;20032;-78
2022/07/18 06:06:19;;;;;;;7.18;2.08;;;18.70;71.00;;;;;;5018709;28;20041;-79
2022/07/18 06:08:45;;;;;;;9.50;2.70;;;18.70;70.90;;;;;;5002001;28;20087;-78
2022/07/18 06:11:11;;;;;;;7.80;2.40;;;18.70;70.60;;;;;;5018596;28;20056;-78
2022/07/18 06:13:38;;;;;;;9.73;2.97;;;18.80;70.50;;;;;;5034828;28;20035;-81
2022/07/18 06:16:08;;;;;;;7.20;2.30;;;18.80;70.40;;;;;;5034609;28;20024;-81
2022/07/18 06:18:36;;;;;;;5.47;2.00;;;18.80;70.20;;;;;;5053265;28;20021;-81
2022/07/18 06:21:03;;;;;;;7.55;2.97;;;18.90;70.00;;;;;;5022743;28;20025;-81
2022/07/18 06:23:29;;;;;;;4.75;1.83;;;19.00;69.70;;;;;;5038432;28;20032;-79
2022/07/18 06:25:56;;;;;;;6.00;2.13;;;19.00;69.30;;;;;;5071432;28;20025;-81
2022/07/18 06:28:22;;;;;;;6.32;1.83;;;19.10;68.90;;;;;;5005040;28;20024;-81
2022/07/18 06:30:47;;;;;;;6.40;1.92;;;19.10;68.60;;;;;;5021465;28;20550;-81
2022/07/18 06:33:14;;;;;;;9.40;2.10;;;19.20;68.40;;;;;;5055647;28;20033;-81
2022/07/18 06:35:40;;;;;;;6.25;1.95;;;19.20;68.20;;;;;;5021430;28;20082;-81
2022/07/18 06:38:06;;;;;;;6.72;1.52;;;19.30;68.80;;;;;;5050148;28;20400;-81
2022/07/18 06:40:31;;;;;;;5.20;1.65;;;19.40;68.20;;;;;;5075531;28;20024;-80
2022/07/18 06:42:57;;;;;;;6.13;1.70;;;19.40;68.00;;;;;;5075676;28;20512;-80
2022/07/18 06:45:23;;;;;;;6.95;1.90;;;19.50;67.90;;;;;;5041077;28;20147;-81
2022/07/18 06:47:49;;;;;;;7.63;2.00;;;19.50;67.70;;;;;;5057837;28;20029;-80
2022/07/18 06:50:15;;;;;;;4.60;1.42;;;19.60;67.70;;;;;;5041165;28;20021;-80
2022/07/18 06:52:41;;;;;;;5.57;1.65;;;19.60;68.20;;;;;;5057851;28;20360;-80
2022/07/18 06:55:09;;;;;;;6.32;1.92;;;19.70;67.50;;;;;;5037160;28;20489;-81
2022/07/18 06:57:35;;;;;;;5.30;2.22;;;19.70;67.50;;;;;;5037536;28;20040;-80
2022/07/18 07:00:00;;;;;;;5.88;1.90;;;19.80;67.50;;;;;;5040388;28;20018;-80
2022/07/18 07:02:26;;;;;;;5.95;2.22;;;19.80;67.50;;;;;;5039363;28;20030;-80
2022/07/18 07:04:52;;;;;;;7.18;2.70;;;19.80;67.50;;;;;;5017339;28;20029;-80
2022/07/18 07:07:18;;;;;;;6.47;1.60;;;19.90;67.60;;;;;;5035385;28;20076;-79
2022/07/18 07:09:44;;;;;;;4.25;1.48;;;19.90;67.70;;;;;;5033949;28;20071;-80
2022/07/18 07:12:09;;;;;;;4.50;1.63;;;20.00;67.70;;;;;;5033785;28;20037;-80
2022/07/18 07:14:36;;;;;;;3.97;1.52;;;20.10;67.70;;;;;;5033771;28;20108;-79
2022/07/18 07:17:02;;;;;;;6.30;1.85;;;20.10;67.80;;;;;;5033873;28;20021;-80
2022/07/18 07:19:27;;;;;;;4.45;1.55;;;20.20;67.50;;;;;;5017685;28;20022;-80
2022/07/18 07:21:53;;;;;;;4.78;1.40;;;20.20;67.40;;;;;;5017383;28;20074;-79
2022/07/18 07:24:19;;;;;;;5.55;1.55;;;20.30;67.20;;;;;;5033816;28;20033;-79
2022/07/18 07:26:44;;;;;;;4.32;1.25;;;20.30;67.20;;;;;;5017245;28;20022;-80
2022/07/18 07:29:10;;;;;;;4.20;1.50;;;20.40;67.40;;;;;;5033659;28;20425;-80
2022/07/18 07:31:36;;;;;;;7.13;1.40;;;20.40;67.20;;;;;;5033750;28;20048;-80
2022/07/18 07:34:01;;;;;;;4.35;1.23;;;20.50;67.10;;;;;;5033549;28;20111;-78
2022/07/18 07:36:27;;;;;;;4.78;1.23;;;20.60;67.10;;;;;;5033556;28;20025;-79
2022/07/18 07:38:53;;;;;;;4.82;1.33;;;20.60;67.20;;;;;;5017074;28;20105;-79
2022/07/18 07:41:18;;;;;;;5.20;1.10;;;20.70;67.10;;;;;;5017176;28;20561;-79
2022/07/18 07:43:44;;;;;;;3.78;0.95;;;20.70;67.10;;;;;;5033859;28;20043;-79
2022/07/18 07:46:11;;;;;;;8.00;1.20;;;20.80;67.00;;;;;;5033444;28;20065;-81
2022/07/18 07:48:38;;;;;;;3.88;1.05;;;20.90;66.80;;;;;;5017038;28;20060;-78
2022/07/18 07:51:03;;;;;;;3.90;1.13;;;21.00;67.40;;;;;;5034464;28;20029;-79
2022/07/18 07:53:29;;;;;;;5.82;1.30;;;21.10;66.80;;;;;;5038507;28;20053;-78
2022/07/18 07:55:55;;;;;;;3.83;0.90;;;21.10;66.60;;;;;;5029927;28;20032;-79
2022/07/18 07:58:20;;;;;;;3.92;1.02;;;21.20;66.40;;;;;;5047874;28;20461;-79
2022/07/18 08:00:46;;;;;;;3.97;1.20;;;21.30;66.00;;;;;;5036094;28;20397;-80
2022/07/18 08:03:12;;;;;;;7.28;1.00;;;21.30;65.70;;;;;;5036306;28;20120;-80
2022/07/18 08:05:45;;;;;;;2.63;0.70;;;21.40;65.60;;;;;;5054375;28;20057;-80
2022/07/18 08:08:11;;;;;;;4.55;0.95;;;21.50;66.00;;;;;;5052761;28;20025;-80
2022/07/18 08:10:36;;;;;;;3.38;0.90;;;21.50;65.10;;;;;;5052695;28;20094;-81
2022/07/18 08:13:02;;;;;;;4.90;1.05;;;21.70;64.80;;;;;;5036012;28;20037;-80
2022/07/18 08:15:28;;;;;;;3.13;0.80;;;21.70;64.70;;;;;;5036283;28;20052;-80
2022/07/18 08:17:54;;;;;;;4.20;0.80;;;21.80;64.80;;;;;;5052729;28;20029;-80
2022/07/18 08:20:21;;;;;;;7.63;0.77;;;21.80;63.90;;;;;;5036029;28;20021;-80
2022/07/18 08:23:02;;;;;;;3.88;0.73;;;21.90;63.80;;;;;;5052547;28;20029;-80
2022/07/18 08:25:31;;;;;;;6.43;1.05;;;22.00;63.50;;;;;;5052494;28;20128;-79
2022/07/18 08:27:57;;;;;;;3.83;0.93;;;22.10;63.30;;;;;;5065986;28;20091;-79
2022/07/18 08:30:24;;;;;;;5.22;1.10;;;22.20;62.90;;;;;;5052360;28;20079;-80
2022/07/18 08:32:49;;;;;;;4.68;0.82;;;22.30;62.70;;;;;;5069277;28;20035;-80
2022/07/18 08:35:15;;;;;;;4.65;0.95;;;22.30;62.30;;;;;;5052218;28;20021;-80
2022/07/18 08:37:41;;;;;;;3.60;0.70;;;22.40;62.20;;;;;;5068867;28;20441;-80
2022/07/18 08:40:07;;;;;;;4.32;0.70;;;22.50;61.70;;;;;;5070381;28;20025;-80
2022/07/18 08:42:35;;;;;;;5.90;1.35;;;22.60;61.40;;;;;;5057673;28;20021;-81
2022/07/18 08:45:01;;;;;;;6.95;1.00;;;22.70;61.30;;;;;;5066531;28;20115;-79
2022/07/18 08:47:29;;;;;;;6.68;0.80;;;22.80;61.10;;;;;;5068588;28;20094;-79
2022/07/18 08:49:55;;;;;;;2.67;0.77;;;22.90;60.90;;;;;;5053519;28;20377;-79
2022/07/18 08:52:21;;;;;;;4.35;1.00;;;23.00;60.80;;;;;;5051747;28;20055;-81
2022/07/18 08:54:48;;;;;;;4.15;0.70;;;23.10;60.90;;;;;;5035240;28;20064;-81
2022/07/18 08:57:15;;;;;;;3.00;0.77;;;23.20;60.90;;;;;;5053384;28;20017;-81
2022/07/18 08:59:41;;;;;;;4.57;0.93;;;23.30;60.50;;;;;;5051981;28;20029;-81
2022/07/18 09:02:08;;;;;;;3.78;0.68;;;23.40;60.10;;;;;;5053199;28;20029;-81
2022/07/18 09:04:39;;;;;;;3.53;0.88;;;23.50;60.50;;;;;;5053235;28;20040;-81
2022/07/18 09:07:07;;;;;;;5.13;0.85;;;23.50;59.90;;;;;;5053085;28;20108;-83
2022/07/18 09:09:32;;;;;;;4.82;0.80;;;23.50;60.60;;;;;;5053270;28;20025;-81
2022/07/18 09:12:09;;;;;;;4.00;0.77;;;23.60;59.80;;;;;;5035338;28;20153;-80
2022/07/18 09:14:38;;;;;;;3.63;0.73;;;23.70;59.30;;;;;;5052015;28;20127;-80
2022/07/18 09:17:13;;;;;;;4.07;0.80;;;23.70;59.00;;;;;;5051920;28;20025;-81
2022/07/18 09:20:01;;;;;;;2.63;0.70;;;23.80;58.60;;;;;;5052126;28;20102;-80
2022/07/18 09:22:35;;;;;;;2.20;0.60;;;23.80;58.20;;;;;;5051460;28;20028;-81
2022/07/18 09:25:03;;;;;;;2.50;0.65;;;23.90;58.00;;;;;;5051707;28;20428;-80
2022/07/18 09:27:30;;;;;;;4.55;0.80;;;24.00;57.60;;;;;;5051981;28;20025;-80
2022/07/18 09:30:28;;;;;;;3.92;0.93;;;24.10;57.30;;;;;;5051824;28;20116;-76
2022/07/18 09:33:03;;;;;;;2.95;0.70;;;24.20;56.80;;;;;;5052919;28;20029;-80
2022/07/18 09:35:32;;;;;;;3.17;0.70;;;24.30;56.70;;;;;;5051392;28;20049;-80
2022/07/18 09:38:10;;;;;;;4.20;0.82;;;24.40;56.70;;;;;;5051501;28;20029;-80
2022/07/18 09:40:42;;;;;;;2.15;0.52;;;24.50;56.00;;;;;;5051745;28;20013;-81
2022/07/18 09:43:13;;;;;;;4.97;0.70;;;24.60;55.70;;;;;;5051749;28;20021;-81
2022/07/18 09:45:47;;;;;;;4.20;0.88;;;24.70;55.70;;;;;;5051662;28;20529;-81
2022/07/18 09:48:14;;;;;;;3.85;0.80;;;24.90;55.70;;;;;;5051634;28;20115;-81
2022/07/18 09:50:43;;;;;;;2.83;0.75;;;25.00;55.80;;;;;;5053007;28;20029;-81
2022/07/18 09:53:12;;;;;;;4.68;0.75;;;25.20;55.20;;;;;;5055821;28;20067;-81
2022/07/18 09:55:52;;;;;;;7.47;0.85;;;25.30;54.40;;;;;;5058729;28;20392;-81
2022/07/18 09:58:26;;;;;;;4.85;0.70;;;25.50;53.70;;;;;;5058599;28;20415;-76
2022/07/18 10:00:54;;;;;;;4.63;0.70;;;25.50;53.40;;;;;;5076879;28;20047;-81
2022/07/18 10:03:21;;;;;;;4.25;0.82;;;25.70;53.20;;;;;;5058334;28;20480;-81
2022/07/18 10:05:48;;;;;;;3.47;0.70;;;25.80;52.80;;;;;;5058589;28;20032;-81
2022/07/18 10:08:16;;;;;;;4.78;0.75;;;25.90;52.90;;;;;;5058425;28;20036;-81
2022/07/18 10:10:46;;;;;;;2.25;0.60;;;26.00;53.10;;;;;;5057892;28;20028;-80
2022/07/18 10:13:12;;;;;;;3.35;0.77;;;26.10;53.30;;;;;;5054407;28;20028;-80
2022/07/18 10:15:42;;;;;;;5.38;0.63;;;26.10;53.30;;;;;;5039966;28;20333;-79
2022/07/18 10:18:14;;;;;;;3.05;0.68;;;26.20;53.30;;;;;;5057836;28;20024;-80
2022/07/18 10:20:44;;;;;;;2.90;0.70;;;26.20;53.20;;;;;;5054645;28;20079;-78
2022/07/18 10:23:24;;;;;;;2.50;0.70;;;26.20;53.90;;;;;;5061475;28;20051;-80
2022/07/18 10:26:23;;;;;;;3.03;0.70;;;26.30;54.50;;;;;;5055796;28;20430;-80
2022/07/18 10:28:55;;;;;;;2.90;0.93;;;26.40;54.80;;;;;;5063761;28;20028;-81
2022/07/18 10:31:21;;;;;;;2.95;0.80;;;26.50;54.70;;;;;;5057840;28;20024;-78
2022/07/18 10:33:48;;;;;;;2.97;0.70;;;26.50;54.70;;;;;;5075364;28;20029;-80
2022/07/18 10:36:18;;;;;;;8.02;0.95;;;26.60;54.70;;;;;;5054099;28;20016;-81
2022/07/18 10:39:12;;;;;;;2.90;0.93;;;26.60;54.70;;;;;;5077808;28;20035;-81
2022/07/18 10:41:41;;;;;;;4.78;0.75;;;26.60;55.00;;;;;;5095779;28;20460;-81
2022/07/18 10:44:25;;;;;;;3.50;0.90;;;26.70;54.70;;;;;;5078089;28;20059;-81
2022/07/18 10:47:02;;;;;;;2.78;0.80;;;26.80;53.40;;;;;;5077798;28;20032;-81
2022/07/18 10:49:49;;;;;;;2.38;0.90;;;26.90;53.00;;;;;;5078262;28;20028;-81
2022/07/18 10:52:24;;;;;;;7.47;0.90;;;27.10;53.10;;;;;;5057826;28;20037;-82
2022/07/18 10:55:18;;;;;;;3.50;0.60;;;27.30;52.70;;;;;;5057557;28;20610;-82
2022/07/18 10:57:50;;;;;;;7.43;0.80;;;27.50;51.60;;;;;;5057442;28;20032;-81
2022/07/18 11:00:27;;;;;;;3.47;0.65;;;27.70;50.90;;;;;;5057292;28;20484;-82
2022/07/18 11:03:09;;;;;;;2.92;0.73;;;27.90;50.50;;;;;;5073755;28;20470;-81
2022/07/18 11:05:36;;;;;;;3.13;0.70;;;28.20;49.80;;;;;;5058496;28;20025;-81
2022/07/18 11:08:02;;;;;;;4.03;0.68;;;28.40;49.80;;;;;;5057231;28;20028;-81
2022/07/18 11:13:30;;;;;;;3.88;0.70;;;28.80;48.20;;;;;;5075445;28;20032;-81
2022/07/18 11:16:06;;;;;;;3.78;0.73;;;29.10;47.90;;;;;;5075076;28;20024;-81
2022/07/18 11:18:53;;;;;;;1.73;0.50;;;29.30;47.90;;;;;;5057327;28;20116;-81
2022/07/18 11:21:29;;;;;;;2.58;0.70;;;29.50;47.60;;;;;;5043117;28;20051;-84
2022/07/18 11:24:14;;;;;;;2.55;0.50;;;29.70;47.20;;;;;;5057212;28;20475;-82
2022/07/18 11:26:46;;;;;;;5.15;0.70;;;30.00;46.20;;;;;;5057265;28;20029;-81
2022/07/18 11:29:15;;;;;;;3.22;0.70;;;30.20;45.90;;;;;;5073811;28;20078;-82
2022/07/18 11:31:59;;;;;;;6.63;1.35;;;30.50;45.60;;;;;;5072998;28;20039;-82
2022/07/18 11:34:25;;;;;;;6.72;0.80;;;30.70;44.60;;;;;;5055487;28;20078;-83
2022/07/18 11:36:51;;;;;;;7.07;1.40;;;30.90;44.40;;;;;;5056579;28;20016;-82
2022/07/18 11:39:31;;;;;;;4.45;0.90;;;31.10;44.00;;;;;;5074877;28;20141;-82
2022/07/18 11:41:57;;;;;;;4.35;0.80;;;31.30;43.20;;;;;;5073438;28;20032;-82
2022/07/18 11:44:26;;;;;;;3.40;0.82;;;31.50;43.20;;;;;;5074594;28;20028;-82
2022/07/18 11:47:09;;;;;;;3.95;1.10;;;31.70;42.70;;;;;;5056502;28;20024;-82
2022/07/18 11:49:36;;;;;;;2.57;0.60;;;31.90;41.70;;;;;;5073083;28;20032;-82
2022/07/18 11:52:03;;;;;;;3.95;0.70;;;32.10;41.70;;;;;;5039786;28;20286;-82
2022/07/18 11:54:29;;;;;;;3.63;0.90;;;32.30;41.40;;;;;;5056248;28;20051;-82
2022/07/18 11:56:56;;;;;;;1.98;0.70;;;32.50;41.10;;;;;;5073848;28;20030;-82
2022/07/18 11:59:22;;;;;;;2.67;0.55;;;32.70;41.30;;;;;;5056359;28;20028;-82
2022/07/18 12:01:52;;;;;;;7.13;0.73;;;32.90;40.50;;;;;;5063805;28;20021;-77
2022/07/18 12:04:19;;;;;;;3.47;0.55;;;33.20;40.20;;;;;;5074233;28;20104;-77
2022/07/18 12:07:05;;;;;;;3.13;0.77;;;33.50;40.00;;;;;;5074691;28;20024;-76
2022/07/18 12:09:31;;;;;;;4.45;0.70;;;33.60;39.90;;;;;;5073942;28;20077;-82
2022/07/18 12:12:10;;;;;;;4.25;0.82;;;33.90;39.50;;;;;;5056335;28;20032;-82
2022/07/18 12:14:38;;;;;;;2.33;0.80;;;34.00;38.40;;;;;;5073568;28;20048;-82
2022/07/18 12:17:05;;;;;;;3.00;0.77;;;34.20;38.60;;;;;;5072389;28;20021;-82
2022/07/18 12:19:39;;;;;;;3.08;0.80;;;34.50;38.40;;;;;;5072528;28;20035;-82
2022/07/18 12:22:05;;;;;;;4.32;0.80;;;34.60;37.70;;;;;;5072669;28;20548;-81
2022/07/18 12:24:49;;;;;;;3.22;0.70;;;34.80;37.70;;;;;;5072461;28;20025;-82
2022/07/18 12:27:20;;;;;;;2.30;0.70;;;35.00;37.30;;;;;;5072447;28;20025;-82
2022/07/18 12:30:14;;;;;;;1.80;0.63;;;35.10;37.20;;;;;;5072289;28;20021;-82
2022/07/18 12:32:45;;;;;;;3.25;0.75;;;35.20;36.90;;;;;;5070038;28;20396;-81
2022/07/18 12:35:22;;;;;;;3.65;0.70;;;35.50;37.00;;;;;;5064782;28;20016;-82
2022/07/18 12:38:02;;;;;;;1.90;0.60;;;35.60;36.50;;;;;;5052371;28;20021;-81
2022/07/18 12:40:45;;;;;;;4.57;0.70;;;35.90;36.10;;;;;;5054722;28;20487;-81
2022/07/18 12:43:21;;;;;;;2.10;0.68;;;36.10;35.80;;;;;;5042525;28;20054;-80
2022/07/18 12:45:47;;;;;;;4.03;0.82;;;36.30;35.80;;;;;;5052351;28;20115;-82
2022/07/18 12:48:13;;;;;;;3.30;1.10;;;36.40;35.70;;;;;;5065631;28;20025;-83
2022/07/18 12:50:41;;;;;;;3.58;0.98;;;36.50;35.80;;;;;;5065570;28;20033;-82
2022/07/18 12:53:07;;;;;;;3.03;0.70;;;36.60;35.80;;;;;;5047304;28;20021;-81
2022/07/18 12:55:34;;;;;;;4.60;0.80;;;36.70;35.50;;;;;;5054738;28;20028;-80
2022/07/18 12:58:00;;;;;;;1.92;0.65;;;36.90;35.40;;;;;;5038129;28;20038;-82